createdAt,value
2022-12-14T00:01:20.356Z,0.73
2022-12-14T00:03:47.927Z,0.70
2022-12-14T00:06:18.058Z,0.65
2022-12-14T00:08:46.618Z,0.65
2022-12-14T00:11:14.379Z,0.68
2022-12-14T00:13:42.073Z,0.70
2022-12-14T00:16:14.109Z,0.73
2022-12-14T00:18:41.800Z,0.73
2022-12-14T00:21:10.995Z,0.79
2022-12-14T00:23:39.348Z,0.80
2022-12-14T00:26:20.088Z,0.76
2022-12-14T00:28:47.788Z,0.75
2022-12-14T00:31:14.799Z,0.78
2022-12-14T00:33:41.537Z,0.73
2022-12-14T00:36:10.120Z,0.66
2022-12-14T00:38:37.209Z,0.69
2022-12-14T00:41:04.325Z,0.73
2022-12-14T00:43:31.201Z,0.77
2022-12-14T00:45:57.726Z,0.77
2022-12-14T00:48:26.032Z,0.73
2022-12-14T00:50:55.088Z,0.78
2022-12-14T00:53:23.389Z,0.78
2022-12-14T00:55:50.396Z,0.79
2022-12-14T00:58:20.040Z,0.82
2022-12-14T01:00:48.308Z,0.81
2022-12-14T01:03:15.189Z,0.80
2022-12-14T01:05:41.752Z,0.70
2022-12-14T01:08:15.923Z,0.61
2022-12-14T01:10:42.369Z,0.62
2022-12-14T01:13:10.635Z,0.63
2022-12-14T01:15:37.187Z,0.64
2022-12-14T01:18:03.814Z,0.67
2022-12-14T01:20:30.768Z,0.63
2022-12-14T01:22:57.279Z,0.56
2022-12-14T01:25:24.379Z,0.53
2022-12-14T01:27:50.856Z,0.57
2022-12-14T01:30:19.350Z,0.66
2022-12-14T01:32:46.753Z,0.63
2022-12-14T01:35:13.298Z,0.63
2022-12-14T01:37:39.751Z,0.65
2022-12-14T01:40:06.607Z,0.60
2022-12-14T01:42:37.933Z,0.53
2022-12-14T01:45:05.253Z,0.51
2022-12-14T01:47:44.236Z,0.54
2022-12-14T01:50:34.516Z,0.61
2022-12-14T01:53:05.825Z,0.60
2022-12-14T01:55:36.208Z,0.65
2022-12-14T01:58:17.021Z,0.63
2022-12-14T02:00:44.444Z,0.52
2022-12-14T02:03:34.398Z,0.49
2022-12-14T02:06:07.570Z,0.49
2022-12-14T02:08:34.519Z,0.50
2022-12-14T02:11:02.929Z,0.31
2022-12-14T02:13:33.243Z,0.19
2022-12-14T02:15:59.937Z,0.06
2022-12-14T02:18:29.706Z,0.08
2022-12-14T02:21:27.728Z,0.06
2022-12-14T02:24:14.169Z,-0.02
2022-12-14T02:26:52.200Z,-0.17
2022-12-14T02:29:27.637Z,-0.19
2022-12-14T02:32:19.698Z,-0.29
2022-12-14T02:34:59.373Z,-0.34
2022-12-14T02:37:37.267Z,-0.42
2022-12-14T02:40:35.580Z,-0.40
2022-12-14T02:43:16.981Z,-0.40
2022-12-14T02:46:02.382Z,-0.35
2022-12-14T02:48:39.543Z,-0.49
2022-12-14T02:51:18.519Z,-0.54
2022-12-14T02:53:53.627Z,-0.59
2022-12-14T02:56:27.709Z,-0.53
2022-12-14T02:58:54.905Z,-0.66
2022-12-14T03:01:26.039Z,-0.62
2022-12-14T03:03:52.584Z,-0.66
2022-12-14T03:06:27.385Z,-0.63
2022-12-14T03:08:58.613Z,-0.71
2022-12-14T03:11:56.268Z,-0.82
2022-12-14T03:14:31.437Z,-0.85
2022-12-14T03:17:05.316Z,-0.91
2022-12-14T03:19:40.864Z,-0.91
2022-12-14T03:22:17.191Z,-0.97
2022-12-14T03:24:49.544Z,-1.01
2022-12-14T03:27:27.627Z,-0.97
2022-12-14T03:29:59.604Z,-1.00
2022-12-14T03:32:29.670Z,-1.07
2022-12-14T03:34:59.516Z,-1.13
2022-12-14T03:37:39.756Z,-1.15
2022-12-14T03:40:13.089Z,-1.20
2022-12-14T03:43:04.727Z,-1.30
2022-12-14T03:45:52.600Z,-1.36
2022-12-14T03:48:27.794Z,-1.29
2022-12-14T03:51:26.407Z,-1.31
2022-12-14T03:54:02.747Z,-1.31
2022-12-14T03:56:49.639Z,-1.40
2022-12-14T03:59:27.972Z,-1.49
2022-12-14T04:02:09.705Z,-1.53
2022-12-14T04:04:54.388Z,-1.48
2022-12-14T04:07:45.893Z,-1.50
2022-12-14T04:10:45.605Z,-1.60
2022-12-14T04:13:37.557Z,-1.59
2022-12-14T04:16:32.067Z,-1.66
2022-12-14T04:19:00.996Z,-1.67
2022-12-14T04:21:55.429Z,-1.69
2022-12-14T04:24:50.997Z,-1.74
2022-12-14T04:27:26.105Z,-1.72
2022-12-14T04:29:56.970Z,-1.78
2022-12-14T04:32:29.491Z,-1.83
2022-12-14T04:35:11.042Z,-1.84
2022-12-14T04:37:41.302Z,-1.89
2022-12-14T04:40:13.453Z,-1.79
2022-12-14T04:42:47.145Z,-1.74
2022-12-14T04:45:21.938Z,-1.81
2022-12-14T04:48:22.252Z,-1.90
2022-12-14T04:50:55.449Z,-1.75
2022-12-14T04:53:26.993Z,-1.83
2022-12-14T04:56:05.507Z,-1.81
2022-12-14T04:58:33.978Z,-1.82
2022-12-14T05:01:22.651Z,-1.86
2022-12-14T05:04:01.724Z,-1.88
2022-12-14T05:06:40.722Z,-1.89
2022-12-14T05:09:29.249Z,-1.98
2022-12-14T05:12:37.813Z,-1.95
2022-12-14T05:15:23.349Z,-1.78
2022-12-14T05:17:50.001Z,-1.84
2022-12-14T05:20:22.039Z,-1.76
2022-12-14T05:22:48.579Z,-1.84
2022-12-14T05:25:15.340Z,-1.73
2022-12-14T05:27:41.944Z,-1.71
2022-12-14T05:30:09.173Z,-1.73
2022-12-14T05:32:35.736Z,-1.82
2022-12-14T05:35:03.374Z,-1.88
2022-12-14T05:37:29.957Z,-1.94
2022-12-14T05:39:56.506Z,-1.92
2022-12-14T05:42:23.005Z,-1.93
2022-12-14T05:44:49.416Z,-1.97
2022-12-14T05:47:16.233Z,-2.05
2022-12-14T05:49:42.677Z,-2.05
2022-12-14T05:52:09.165Z,-2.11
2022-12-14T05:54:35.626Z,-2.18
2022-12-14T05:57:02.118Z,-2.25
2022-12-14T05:59:28.612Z,-2.29
2022-12-14T06:01:55.101Z,-2.37
2022-12-14T06:04:21.806Z,-2.29
2022-12-14T06:06:48.354Z,-2.29
2022-12-14T06:09:16.043Z,-2.45
2022-12-14T06:11:43.456Z,-2.54
2022-12-14T06:14:11.080Z,-2.51
2022-12-14T06:16:41.243Z,-2.47
2022-12-14T06:19:08.073Z,-2.51
2022-12-14T06:21:37.017Z,-2.51
2022-12-14T06:24:04.659Z,-2.63
2022-12-14T06:26:33.035Z,-2.69
2022-12-14T06:28:59.921Z,-2.74
2022-12-14T06:31:29.177Z,-2.76
2022-12-14T06:33:59.524Z,-2.67
2022-12-14T06:36:34.702Z,-2.72
2022-12-14T06:39:06.980Z,-2.83
2022-12-14T06:41:33.507Z,-2.85
2022-12-14T06:44:07.551Z,-2.91
2022-12-14T06:46:34.906Z,-2.95
2022-12-14T06:49:02.126Z,-2.99
2022-12-14T06:51:28.586Z,-3.03
2022-12-14T06:53:56.674Z,-3.02
2022-12-14T06:56:25.429Z,-3.05
2022-12-14T06:58:54.076Z,-3.09
2022-12-14T07:01:22.230Z,-3.10
2022-12-14T07:03:51.584Z,-3.15
2022-12-14T07:06:18.118Z,-3.08
2022-12-14T07:08:44.821Z,-3.10
2022-12-14T07:11:14.604Z,-3.07
2022-12-14T07:13:42.210Z,-3.12
2022-12-14T07:16:15.511Z,-3.08
2022-12-14T07:18:42.535Z,-3.13
2022-12-14T07:21:11.414Z,-3.12
2022-12-14T07:23:39.520Z,-3.18
2022-12-14T07:26:17.829Z,-3.23
2022-12-14T07:28:45.643Z,-3.27
2022-12-14T07:31:15.587Z,-3.27
2022-12-14T07:33:42.196Z,-3.17
2022-12-14T07:36:12.557Z,-3.06
2022-12-14T07:38:40.552Z,-2.94
2022-12-14T07:41:10.107Z,-3.00
2022-12-14T07:43:37.451Z,-3.07
2022-12-14T07:46:06.577Z,-3.06
2022-12-14T07:48:34.041Z,-3.15
2022-12-14T07:51:09.513Z,-3.18
2022-12-14T07:53:37.725Z,-3.20
2022-12-14T07:56:07.748Z,-3.20
2022-12-14T07:58:36.076Z,-3.26
2022-12-14T08:01:13.514Z,-3.23
2022-12-14T08:03:45.187Z,-3.25
2022-12-14T08:06:12.626Z,-3.16
2022-12-14T08:08:39.383Z,-3.11
2022-12-14T08:11:07.353Z,-3.00
2022-12-14T08:13:34.572Z,-3.09
2022-12-14T08:16:07.207Z,-3.09
2022-12-14T08:18:34.043Z,-3.02
2022-12-14T08:21:01.801Z,-3.10
2022-12-14T08:23:29.024Z,-3.18
2022-12-14T08:25:57.031Z,-3.17
2022-12-14T08:28:24.503Z,-3.18
2022-12-14T08:30:51.285Z,-3.24
2022-12-14T08:33:19.036Z,-3.26
2022-12-14T08:35:45.705Z,-3.25
2022-12-14T08:38:12.464Z,-3.19
2022-12-14T08:40:39.909Z,-3.23
2022-12-14T08:43:07.402Z,-3.18
2022-12-14T08:45:33.839Z,-3.15
2022-12-14T08:48:01.701Z,-3.12
2022-12-14T08:50:29.204Z,-3.12
2022-12-14T08:52:55.990Z,-3.07
2022-12-14T08:55:28.278Z,-3.00
2022-12-14T08:57:55.868Z,-2.81
2022-12-14T09:00:22.436Z,-2.65
2022-12-14T09:02:52.304Z,-2.52
2022-12-14T09:05:18.860Z,-2.64
2022-12-14T09:07:45.769Z,-2.49
2022-12-14T09:10:12.848Z,-2.42
2022-12-14T09:12:39.531Z,-2.33
2022-12-14T09:15:07.262Z,-2.20
2022-12-14T09:17:34.530Z,-2.16
2022-12-14T09:20:01.057Z,-2.09
2022-12-14T09:22:27.588Z,-1.97
2022-12-14T09:24:54.581Z,-1.89
2022-12-14T09:27:22.437Z,-1.88
2022-12-14T09:29:49.764Z,-1.74
2022-12-14T09:32:16.588Z,-1.72
2022-12-14T09:34:43.255Z,-1.69
2022-12-14T09:37:09.783Z,-1.67
2022-12-14T09:39:37.265Z,-1.60
2022-12-14T09:42:12.141Z,-1.61
2022-12-14T09:45:07.808Z,-1.65
2022-12-14T09:47:41.490Z,-1.51
2022-12-14T09:50:23.454Z,-1.50
2022-12-14T09:53:12.698Z,-1.51
2022-12-14T09:55:44.604Z,-1.43
2022-12-14T09:58:27.567Z,-1.36
2022-12-14T10:01:22.466Z,-1.47
2022-12-14T10:04:10.261Z,-1.25
2022-12-14T10:06:42.209Z,-1.32
2022-12-14T10:09:22.469Z,-1.31
2022-12-14T10:12:16.604Z,-1.30
2022-12-14T10:14:46.059Z,-1.22
2022-12-14T10:17:46.643Z,-1.23
2022-12-14T10:20:42.895Z,-0.97
2022-12-14T10:23:21.008Z,-1.00
2022-12-14T10:25:54.355Z,-0.88
2022-12-14T10:28:43.821Z,-0.82
2022-12-14T10:31:16.348Z,-0.69
2022-12-14T10:33:46.405Z,-0.65
2022-12-14T10:36:26.269Z,-0.53
2022-12-14T10:39:01.970Z,-0.35
2022-12-14T10:41:31.112Z,-0.14
2022-12-14T10:44:20.828Z,0.14
2022-12-14T10:46:59.710Z,0.17
2022-12-14T10:49:50.152Z,-0.09
2022-12-14T10:52:21.044Z,-0.02
2022-12-14T10:54:52.893Z,0.06
2022-12-14T10:57:26.315Z,0.16
2022-12-14T11:00:07.974Z,0.30
2022-12-14T11:02:39.624Z,0.39
2022-12-14T11:05:21.969Z,0.31
2022-12-14T11:07:49.929Z,0.30
2022-12-14T11:10:17.666Z,0.32
2022-12-14T11:12:58.645Z,0.42
2022-12-14T11:15:45.830Z,0.42
2022-12-14T11:18:12.349Z,0.43
2022-12-14T11:20:51.425Z,0.52
2022-12-14T11:23:24.920Z,0.64
2022-12-14T11:25:55.631Z,0.66
2022-12-14T11:28:32.762Z,0.76
2022-12-14T11:31:07.398Z,0.73
2022-12-14T11:34:01.749Z,0.96
2022-12-14T11:36:41.464Z,1.02
2022-12-14T11:39:13.642Z,1.10
2022-12-14T11:41:46.950Z,1.20
2022-12-14T11:44:16.439Z,1.34
2022-12-14T11:46:49.898Z,1.44
2022-12-14T11:49:36.202Z,1.52
2022-12-14T11:52:05.711Z,1.64
2022-12-14T11:54:33.457Z,1.73
2022-12-14T11:57:15.090Z,1.87
2022-12-14T11:59:49.425Z,1.92
2022-12-14T12:02:35.445Z,2.12
2022-12-14T12:05:18.456Z,2.11
2022-12-14T12:07:53.069Z,2.17
2022-12-14T12:10:22.350Z,2.23
2022-12-14T12:13:01.273Z,2.31
2022-12-14T12:15:53.844Z,2.27
2022-12-14T12:18:45.818Z,2.33
2022-12-14T12:21:18.407Z,2.43
2022-12-14T12:23:57.482Z,2.47
2022-12-14T12:26:29.354Z,2.42
2022-12-14T12:29:23.661Z,2.45
2022-12-14T12:32:14.741Z,2.57
2022-12-14T12:34:45.083Z,2.70
2022-12-14T12:37:31.329Z,2.63
2022-12-14T12:40:04.783Z,2.68
2022-12-14T12:42:46.532Z,2.65
2022-12-14T12:45:19.372Z,2.65
2022-12-14T12:48:02.675Z,2.64
2022-12-14T12:50:35.472Z,2.78
2022-12-14T12:53:14.765Z,2.84
2022-12-14T12:55:50.252Z,2.83
2022-12-14T12:58:27.702Z,2.76
2022-12-14T13:00:58.556Z,2.87
2022-12-14T13:03:37.666Z,2.80
2022-12-14T13:06:16.398Z,2.88
2022-12-14T13:08:47.821Z,3.03
2022-12-14T13:11:28.440Z,3.12
2022-12-14T13:14:05.731Z,3.16
2022-12-14T13:16:36.790Z,3.29
2022-12-14T13:19:48.800Z,3.34
2022-12-14T13:22:05.239Z,3.46
2022-12-14T13:24:33.488Z,3.43
2022-12-14T13:27:31.770Z,3.75
2022-12-14T13:30:20.668Z,3.78
2022-12-14T13:33:19.169Z,3.89
2022-12-14T13:36:13.685Z,4.06
2022-12-14T13:39:01.732Z,3.84
2022-12-14T13:41:44.110Z,3.70
2022-12-14T13:44:26.570Z,3.73
2022-12-14T13:47:06.320Z,3.80
2022-12-14T13:49:33.616Z,3.82
2022-12-14T13:52:00.349Z,3.94
2022-12-14T13:54:33.141Z,3.93
2022-12-14T13:57:09.626Z,3.96
2022-12-14T13:59:42.323Z,3.86
2022-12-14T14:02:27.645Z,3.66
2022-12-14T14:05:19.148Z,3.78
2022-12-14T14:08:32.161Z,4.26
2022-12-14T14:11:38.335Z,4.65
2022-12-14T14:14:50.752Z,4.81
2022-12-14T14:17:35.844Z,5.13
2022-12-14T14:20:26.687Z,5.73
2022-12-14T14:23:12.981Z,6.44
2022-12-14T14:26:10.504Z,6.52
2022-12-14T14:28:38.075Z,6.89
2022-12-14T14:31:05.272Z,7.05
2022-12-14T14:33:48.979Z,7.18
2022-12-14T14:36:15.731Z,7.43
2022-12-14T14:38:42.971Z,7.69
2022-12-14T14:41:20.342Z,7.79
2022-12-14T14:43:51.616Z,7.79
2022-12-14T14:46:23.154Z,7.37
2022-12-14T14:48:53.023Z,6.72
2022-12-14T14:51:23.501Z,6.51
2022-12-14T14:55:03.672Z,6.28
2022-12-14T14:57:35.665Z,5.35
2022-12-14T15:00:04.558Z,5.05
2022-12-14T15:02:34.164Z,4.97
2022-12-14T15:07:48.872Z,5.20
2022-12-14T15:10:41.732Z,4.89
2022-12-14T15:13:22.931Z,4.14
2022-12-14T15:15:53.053Z,3.48
2022-12-14T15:18:31.194Z,3.24
2022-12-14T15:21:06.069Z,3.00
2022-12-14T15:23:39.142Z,2.81
2022-12-14T15:26:17.401Z,2.65
2022-12-14T15:28:48.513Z,2.65
2022-12-14T15:31:15.100Z,2.61
2022-12-14T15:33:43.602Z,2.55
2022-12-14T15:36:18.099Z,2.36
2022-12-14T15:38:54.298Z,2.34
2022-12-14T15:41:23.837Z,2.07
2022-12-14T15:43:55.108Z,1.87
2022-12-14T15:46:27.999Z,1.67
2022-12-14T15:48:59.191Z,1.54
2022-12-14T15:51:31.671Z,1.45
2022-12-14T15:53:59.999Z,1.33
2022-12-14T15:56:32.941Z,1.21
2022-12-14T15:59:02.680Z,1.04
2022-12-14T16:01:39.773Z,0.85
2022-12-14T16:04:10.565Z,0.61
2022-12-14T16:06:42.670Z,0.48
2022-12-14T16:09:23.225Z,0.30
2022-12-14T16:11:54.272Z,0.16
2022-12-14T16:14:36.110Z,0.21
2022-12-14T16:17:04.271Z,-0.13
2022-12-14T16:19:57.454Z,-0.30
2022-12-14T16:22:24.540Z,-0.19
2022-12-14T16:25:09.973Z,-0.16
2022-12-14T16:27:55.090Z,-0.15
2022-12-14T16:30:33.364Z,-0.20
2022-12-14T16:33:19.974Z,-0.12
2022-12-14T16:35:57.499Z,-0.08
2022-12-14T16:38:24.131Z,-0.02
2022-12-14T16:41:16.859Z,-0.01
2022-12-14T16:43:55.432Z,-0.21
2022-12-14T16:46:22.019Z,-0.30
2022-12-14T16:49:31.822Z,-0.40
2022-12-14T16:52:11.877Z,-0.55
2022-12-14T16:54:38.813Z,-0.55
2022-12-14T16:57:23.062Z,-0.79
2022-12-14T16:59:58.980Z,-0.82
2022-12-14T17:02:30.644Z,-0.80
2022-12-14T17:04:59.722Z,-0.80
2022-12-14T17:07:28.708Z,-0.81
2022-12-14T17:09:56.454Z,-0.97
2022-12-14T17:12:25.177Z,-1.07
2022-12-14T17:14:52.151Z,-1.09
2022-12-14T17:17:27.076Z,-1.31
2022-12-14T17:19:53.667Z,-1.53
2022-12-14T17:22:25.505Z,-1.52
2022-12-14T17:24:52.375Z,-1.59
2022-12-14T17:27:23.374Z,-1.74
2022-12-14T17:29:49.870Z,-1.95
2022-12-14T17:32:17.325Z,-1.88
2022-12-14T17:34:45.451Z,-1.75
2022-12-14T17:37:18.171Z,-1.65
2022-12-14T17:39:45.689Z,-1.53
2022-12-14T17:42:14.458Z,-1.61
2022-12-14T17:44:43.110Z,-1.67
2022-12-14T17:47:18.395Z,-1.84
2022-12-14T17:49:45.267Z,-1.91
2022-12-14T17:52:21.126Z,-1.91
2022-12-14T17:54:47.726Z,-1.93
2022-12-14T17:57:20.303Z,-1.90
2022-12-14T17:59:47.897Z,-2.04
2022-12-14T18:02:34.827Z,-2.33
2022-12-14T18:05:01.538Z,-2.45
2022-12-14T18:07:28.020Z,-2.49
2022-12-14T18:09:54.569Z,-2.44
2022-12-14T18:12:23.446Z,-2.46
2022-12-14T18:14:50.788Z,-2.45
2022-12-14T18:17:18.747Z,-2.47
2022-12-14T18:19:45.187Z,-2.38
2022-12-14T18:22:14.572Z,-2.32
2022-12-14T18:24:41.124Z,-2.26
2022-12-14T18:27:07.587Z,-2.16
2022-12-14T18:29:34.191Z,-2.10
2022-12-14T18:32:00.820Z,-2.19
2022-12-14T18:34:27.362Z,-2.22
2022-12-14T18:36:54.215Z,-2.17
2022-12-14T18:39:22.086Z,-2.18
2022-12-14T18:41:48.847Z,-2.30
2022-12-14T18:44:15.410Z,-2.30
2022-12-14T18:46:41.949Z,-2.49
2022-12-14T18:49:08.423Z,-2.63
2022-12-14T18:51:34.908Z,-2.79
2022-12-14T18:54:02.316Z,-2.64
2022-12-14T18:56:29.225Z,-2.68
2022-12-14T18:58:56.336Z,-2.48
2022-12-14T19:01:24.780Z,-2.33
2022-12-14T19:03:51.738Z,-2.47
2022-12-14T19:09:12.049Z,-2.75
2022-12-14T19:11:42.020Z,-2.89
2022-12-14T19:14:09.422Z,-2.98
2022-12-14T19:16:36.236Z,-2.94
2022-12-14T19:19:03.518Z,-3.06
2022-12-14T19:21:31.321Z,-3.12
2022-12-14T19:23:59.625Z,-3.22
2022-12-14T19:26:28.141Z,-3.29
2022-12-14T19:28:54.641Z,-3.30
2022-12-14T19:31:21.207Z,-3.25
2022-12-14T19:33:50.633Z,-3.14
2022-12-14T19:36:17.416Z,-3.02
2022-12-14T19:38:44.892Z,-2.76
2022-12-14T19:41:17.730Z,-2.81
2022-12-14T19:43:44.293Z,-2.84
2022-12-14T19:46:12.861Z,-2.91
2022-12-14T19:48:40.387Z,-2.76
2022-12-14T19:51:10.447Z,-2.79
2022-12-14T19:53:38.580Z,-2.85
2022-12-14T19:56:05.624Z,-2.85
2022-12-14T19:58:32.604Z,-2.86
2022-12-14T20:00:59.318Z,-2.68
2022-12-14T20:03:26.163Z,-2.61
2022-12-14T20:05:55.479Z,-2.58
2022-12-14T20:08:23.098Z,-2.70
2022-12-14T20:10:50.306Z,-2.77
2022-12-14T20:13:16.755Z,-2.98
2022-12-14T20:15:50.966Z,-3.19
2022-12-14T20:18:18.203Z,-3.20
2022-12-14T20:20:44.822Z,-3.15
2022-12-14T20:23:17.547Z,-3.11
2022-12-14T20:25:44.012Z,-2.95
2022-12-14T20:28:10.641Z,-2.98
2022-12-14T20:30:45.753Z,-3.07
2022-12-14T20:33:12.615Z,-3.08
2022-12-14T20:35:39.176Z,-2.99
2022-12-14T20:38:06.291Z,-3.05
2022-12-14T20:40:38.657Z,-3.00
2022-12-14T20:43:07.135Z,-2.98
2022-12-14T20:45:39.083Z,-2.97
2022-12-14T20:48:06.796Z,-2.93
2022-12-14T20:50:34.948Z,-2.76
2022-12-14T20:53:01.861Z,-2.71
2022-12-14T20:55:28.418Z,-2.74
2022-12-14T20:57:54.973Z,-2.78
2022-12-14T21:00:21.892Z,-2.80
2022-12-14T21:02:48.453Z,-2.94
2022-12-14T21:05:16.082Z,-3.05
2022-12-14T21:07:42.512Z,-3.08
2022-12-14T21:10:09.688Z,-3.02
2022-12-14T21:12:36.961Z,-3.08
2022-12-14T21:15:04.625Z,-3.15
2022-12-14T21:17:31.414Z,-3.18
2022-12-14T21:19:58.192Z,-3.14
2022-12-14T21:22:26.684Z,-3.25
2022-12-14T21:25:03.008Z,-3.30
2022-12-14T21:27:30.743Z,-3.29
2022-12-14T21:29:57.234Z,-3.36
2022-12-14T21:32:23.808Z,-3.50
2022-12-14T21:34:50.433Z,-3.56
2022-12-14T21:37:17.186Z,-3.52
2022-12-14T21:39:51.936Z,-3.53
2022-12-14T21:42:22.003Z,-3.51
2022-12-14T21:44:51.116Z,-3.42
2022-12-14T21:47:20.328Z,-3.37
2022-12-14T21:49:47.373Z,-3.29
2022-12-14T21:52:20.161Z,-3.24
2022-12-14T21:54:46.702Z,-3.32
2022-12-14T21:57:36.539Z,-3.38
2022-12-14T22:00:05.199Z,-3.38
2022-12-14T22:02:31.971Z,-3.30
2022-12-14T22:04:58.475Z,-3.44
2022-12-14T22:07:30.568Z,-3.50
2022-12-14T22:09:57.332Z,-3.32
2022-12-14T22:12:23.795Z,-3.30
2022-12-14T22:14:51.017Z,-3.32
2022-12-14T22:17:17.510Z,-3.35
2022-12-14T22:19:44.017Z,-3.40
2022-12-14T22:22:15.326Z,-3.37
2022-12-14T22:24:42.477Z,-3.32
2022-12-14T22:27:11.235Z,-3.26
2022-12-14T22:29:37.734Z,-3.36
2022-12-14T22:32:04.508Z,-3.42
2022-12-14T22:34:31.006Z,-3.33
2022-12-14T22:36:57.540Z,-3.33
2022-12-14T22:39:23.985Z,-3.33
2022-12-14T22:41:50.530Z,-3.35
2022-12-14T22:44:17.028Z,-3.41
2022-12-14T22:46:43.618Z,-3.44
2022-12-14T22:49:16.223Z,-3.38
2022-12-14T22:51:42.784Z,-3.34
2022-12-14T22:54:11.365Z,-3.29
2022-12-14T22:56:43.442Z,-3.27
2022-12-14T22:59:15.831Z,-3.36
2022-12-14T23:01:42.795Z,-3.24
2022-12-14T23:04:11.841Z,-3.22
2022-12-14T23:06:38.735Z,-3.15
2022-12-14T23:09:24.374Z,-3.12
2022-12-14T23:12:11.614Z,-3.10
2022-12-14T23:14:57.612Z,-3.15
2022-12-14T23:17:42.916Z,-3.20
2022-12-14T23:20:28.638Z,-3.24
2022-12-14T23:23:14.019Z,-3.35
2022-12-14T23:25:59.079Z,-3.27
2022-12-14T23:28:43.877Z,-3.22
2022-12-14T23:31:34.981Z,-3.29
2022-12-14T23:34:20.387Z,-3.43
2022-12-14T23:37:05.192Z,-3.43
2022-12-14T23:39:50.170Z,-3.50
2022-12-14T23:42:35.112Z,-3.50
2022-12-14T23:45:20.054Z,-3.44
2022-12-14T23:48:04.720Z,-3.48
2022-12-14T23:50:49.641Z,-3.49
2022-12-14T23:53:34.664Z,-3.43
2022-12-14T23:56:19.748Z,-3.44
2022-12-14T23:59:04.536Z,-3.43
